createdAt,value
2019-02-16T00:02:15.872Z,82.40
2019-02-16T00:04:44.268Z,82.20
2019-02-16T00:07:12.933Z,82.30
2019-02-16T00:09:41.321Z,82.40
2019-02-16T00:12:09.722Z,82.40
2019-02-16T00:14:38.146Z,82.40
2019-02-16T00:17:06.540Z,82.90
2019-02-16T00:19:34.932Z,83.70
2019-02-16T00:22:03.370Z,84.40
2019-02-16T00:24:31.753Z,84.40
2019-02-16T00:27:00.169Z,84.70
2019-02-16T00:29:28.616Z,84.90
2019-02-16T00:31:57.010Z,84.70
2019-02-16T00:34:25.402Z,84.30
2019-02-16T00:36:53.838Z,84.20
2019-02-16T00:39:22.237Z,84.80
2019-02-16T00:41:50.645Z,85.30
2019-02-16T00:44:19.084Z,86.80
2019-02-16T00:46:47.481Z,86.20
2019-02-16T00:49:15.939Z,86.40
2019-02-16T00:51:44.392Z,86.60
2019-02-16T00:54:12.814Z,86.50
2019-02-16T00:56:41.201Z,87.00
2019-02-16T00:59:09.638Z,88.20
2019-02-16T01:01:38.036Z,87.90
2019-02-16T01:04:06.431Z,88.40
2019-02-16T01:06:34.880Z,88.50
2019-02-16T01:09:04.753Z,88.60
2019-02-16T01:11:33.161Z,88.50
2019-02-16T01:14:01.603Z,88.50
2019-02-16T01:16:30.004Z,88.80
2019-02-16T01:18:58.430Z,89.90
2019-02-16T01:21:26.863Z,90.40
2019-02-16T01:23:55.244Z,90.90
2019-02-16T01:26:23.656Z,91.40
2019-02-16T01:28:52.106Z,91.60
2019-02-16T01:31:20.508Z,91.70
2019-02-16T01:33:48.907Z,91.90
2019-02-16T01:36:17.365Z,92.40
2019-02-16T01:38:45.775Z,92.80
2019-02-16T01:41:14.201Z,93.20
2019-02-16T01:43:42.643Z,93.60
2019-02-16T01:46:11.041Z,93.60
2019-02-16T01:48:39.436Z,93.80
2019-02-16T01:51:08.033Z,94.10
2019-02-16T01:53:36.443Z,94.20
2019-02-16T01:56:04.843Z,94.40
2019-02-16T01:58:33.277Z,94.70
2019-02-16T02:01:01.744Z,94.70
2019-02-16T02:03:30.346Z,94.90
2019-02-16T02:05:58.740Z,95.10
2019-02-16T02:08:27.133Z,95.40
2019-02-16T02:10:55.722Z,95.60
2019-02-16T02:13:24.129Z,96.10
2019-02-16T02:15:52.530Z,95.90
2019-02-16T02:18:20.977Z,95.90
2019-02-16T02:20:49.380Z,96.00
2019-02-16T02:23:18.002Z,96.10
2019-02-16T02:25:46.453Z,96.30
2019-02-16T02:28:14.846Z,96.50
2019-02-16T02:30:43.284Z,96.20
2019-02-16T02:33:11.685Z,96.10
2019-02-16T02:35:40.092Z,96.00
2019-02-16T02:38:08.613Z,95.90
2019-02-16T02:40:37.032Z,96.30
2019-02-16T02:43:05.503Z,96.00
2019-02-16T02:45:34.195Z,96.20
2019-02-16T02:48:02.594Z,96.30
2019-02-16T02:50:30.977Z,96.50
2019-02-16T02:52:59.972Z,96.60
2019-02-16T02:55:28.365Z,96.70
2019-02-16T02:57:56.770Z,96.90
2019-02-16T03:00:25.205Z,97.10
2019-02-16T03:02:53.613Z,97.10
2019-02-16T03:05:22.004Z,97.00
2019-02-16T03:07:50.596Z,97.10
2019-02-16T03:10:19.013Z,96.90
2019-02-16T03:12:47.415Z,97.10
2019-02-16T03:15:16.061Z,97.00
2019-02-16T03:17:44.524Z,97.20
2019-02-16T03:20:12.990Z,97.10
2019-02-16T03:23:12.754Z,96.80
2019-02-16T03:25:43.821Z,96.60
2019-02-16T03:28:42.254Z,96.40
2019-02-16T03:31:16.635Z,96.20
2019-02-16T03:33:48.142Z,95.90
2019-02-16T03:36:31.147Z,95.90
2019-02-16T03:39:02.907Z,95.80
2019-02-16T03:41:31.325Z,95.90
2019-02-16T03:43:59.781Z,95.90
2019-02-16T03:46:28.192Z,95.90
2019-02-16T03:48:56.589Z,95.90
2019-02-16T03:51:25.012Z,95.90
2019-02-16T03:53:53.405Z,96.00
2019-02-16T03:56:21.841Z,96.20
2019-02-16T03:58:50.234Z,96.20
2019-02-16T04:01:18.630Z,96.00
2019-02-16T04:03:47.149Z,96.10
2019-02-16T04:06:15.541Z,96.20
2019-02-16T04:08:43.942Z,96.20
2019-02-16T04:11:12.378Z,96.10
2019-02-16T04:13:40.786Z,96.20
2019-02-16T04:16:09.172Z,96.20
2019-02-16T04:18:37.809Z,96.20
2019-02-16T04:21:06.220Z,96.20
2019-02-16T04:23:34.609Z,96.30
2019-02-16T04:26:04.666Z,96.30
2019-02-16T04:28:33.062Z,96.40
2019-02-16T04:31:01.472Z,96.50
2019-02-16T04:33:29.899Z,96.60
2019-02-16T04:35:58.304Z,96.70
2019-02-16T04:38:26.697Z,96.70
2019-02-16T04:40:55.126Z,96.70
2019-02-16T04:43:23.522Z,96.70
2019-02-16T04:45:51.997Z,96.70
2019-02-16T04:48:20.429Z,96.80
2019-02-16T04:50:48.886Z,96.80
2019-02-16T04:53:17.282Z,96.90
2019-02-16T04:55:45.729Z,97.00
2019-02-16T04:58:14.127Z,97.00
2019-02-16T05:00:42.549Z,97.10
2019-02-16T05:03:10.949Z,97.10
2019-02-16T05:05:39.339Z,97.20
2019-02-16T05:08:07.767Z,97.20
2019-02-16T05:10:36.164Z,97.20
2019-02-16T05:13:04.712Z,97.20
2019-02-16T05:15:33.109Z,97.40
2019-02-16T05:18:01.501Z,97.40
2019-02-16T05:20:29.921Z,97.40
2019-02-16T05:22:58.320Z,97.40
2019-02-16T05:25:26.757Z,97.50
2019-02-16T05:27:55.149Z,97.50
2019-02-16T05:30:23.546Z,97.40
2019-02-16T05:32:51.969Z,97.40
2019-02-16T05:35:20.384Z,97.60
2019-02-16T05:37:48.782Z,97.60
2019-02-16T05:40:17.206Z,97.60
2019-02-16T05:42:45.597Z,97.60
2019-02-16T05:45:13.992Z,97.60
2019-02-16T05:47:42.406Z,97.70
2019-02-16T05:50:10.809Z,98.00
2019-02-16T05:52:39.228Z,98.20
2019-02-16T05:55:07.696Z,98.10
2019-02-16T05:57:36.098Z,98.40
2019-02-16T06:00:27.982Z,98.30
2019-02-16T06:02:56.374Z,98.30
2019-02-16T06:05:24.773Z,98.40
2019-02-16T06:07:53.204Z,98.40
2019-02-16T06:10:21.606Z,98.20
2019-02-16T06:12:50.001Z,98.10
2019-02-16T06:15:18.680Z,98.00
2019-02-16T06:17:47.144Z,97.90
2019-02-16T06:20:15.570Z,97.80
2019-02-16T06:22:44.001Z,97.60
2019-02-16T06:25:12.395Z,97.50
2019-02-16T06:27:40.793Z,97.50
2019-02-16T06:30:09.503Z,97.50
2019-02-16T06:32:37.897Z,97.60
2019-02-16T06:35:24.942Z,97.60
2019-02-16T06:37:53.362Z,97.60
2019-02-16T06:40:21.758Z,97.70
2019-02-16T06:42:50.149Z,97.80
2019-02-16T06:45:18.581Z,97.80
2019-02-16T06:47:46.994Z,97.80
2019-02-16T06:50:15.385Z,97.80
2019-02-16T06:52:43.803Z,97.70
2019-02-16T06:55:12.197Z,97.80
2019-02-16T06:57:42.402Z,97.80
2019-02-16T07:00:11.983Z,97.70
2019-02-16T07:02:40.374Z,97.70
2019-02-16T07:05:08.817Z,97.60
2019-02-16T07:07:37.217Z,97.60
2019-02-16T07:10:08.313Z,97.50
2019-02-16T07:12:36.753Z,97.70
2019-02-16T07:15:06.989Z,97.80
2019-02-16T07:17:43.043Z,97.70
2019-02-16T07:20:11.455Z,97.50
2019-02-16T07:22:39.878Z,97.40
2019-02-16T07:25:08.429Z,97.20
2019-02-16T07:27:36.829Z,97.20
2019-02-16T07:30:08.171Z,97.00
2019-02-16T07:32:36.602Z,97.00
2019-02-16T07:35:06.248Z,96.90
2019-02-16T07:37:34.629Z,96.80
2019-02-16T07:40:03.234Z,96.60
2019-02-16T07:42:33.258Z,96.50
2019-02-16T07:45:03.286Z,96.30
2019-02-16T07:47:45.105Z,96.00
2019-02-16T07:50:17.597Z,95.90
2019-02-16T07:52:48.578Z,95.50
2019-02-16T07:55:27.756Z,95.20
2019-02-16T07:58:00.812Z,95.10
2019-02-16T08:00:47.144Z,94.70
2019-02-16T08:03:17.178Z,94.40
2019-02-16T08:05:50.164Z,94.20
2019-02-16T08:08:29.285Z,93.80
2019-02-16T08:10:59.318Z,93.60
2019-02-16T08:13:32.312Z,93.40
2019-02-16T08:16:02.365Z,93.20
2019-02-16T08:18:48.676Z,92.90
2019-02-16T08:21:24.714Z,92.80
2019-02-16T08:24:12.527Z,92.50
2019-02-16T08:26:47.986Z,92.50
2019-02-16T08:29:29.764Z,92.40
2019-02-16T08:32:08.867Z,92.20
2019-02-16T08:34:54.999Z,92.10
2019-02-16T08:37:25.303Z,92.10
2019-02-16T08:40:04.309Z,91.80
2019-02-16T08:42:34.356Z,91.70
2019-02-16T08:45:04.390Z,91.60
2019-02-16T08:47:37.329Z,91.30
2019-02-16T08:50:08.106Z,91.00
2019-02-16T08:52:44.169Z,90.90
2019-02-16T08:55:14.232Z,90.60
2019-02-16T08:57:59.106Z,90.60
2019-02-16T09:00:45.197Z,90.40
2019-02-16T09:03:30.962Z,90.00
2019-02-16T09:06:17.266Z,89.50
2019-02-16T09:08:50.345Z,89.50
2019-02-16T09:11:20.384Z,89.60
2019-02-16T09:13:53.358Z,89.20
2019-02-16T09:16:39.458Z,89.10
2019-02-16T09:19:09.705Z,88.60
2019-02-16T09:21:55.986Z,88.50
2019-02-16T09:24:38.155Z,88.20
2019-02-16T09:27:10.940Z,88.40
2019-02-16T09:29:43.674Z,88.90
2019-02-16T09:32:13.712Z,85.80
2019-02-16T09:34:52.829Z,84.60
2019-02-16T09:37:29.036Z,84.50
2019-02-16T09:40:14.125Z,83.10
2019-02-16T09:42:53.002Z,82.40
2019-02-16T09:45:32.160Z,82.10
2019-02-16T09:48:04.860Z,79.90
2019-02-16T09:50:37.605Z,79.10
2019-02-16T09:53:07.687Z,77.50
2019-02-16T09:56:05.301Z,76.10
2019-02-16T09:58:35.367Z,76.20
2019-02-16T10:01:08.124Z,76.00
2019-02-16T10:03:46.932Z,74.40
2019-02-16T10:06:25.977Z,75.20
2019-02-16T10:09:08.220Z,73.70
2019-02-16T10:11:46.963Z,73.10
2019-02-16T10:14:16.992Z,73.10
2019-02-16T10:17:03.282Z,71.40
2019-02-16T10:19:39.436Z,71.10
2019-02-16T10:22:09.669Z,71.00
2019-02-16T10:24:55.714Z,69.70
2019-02-16T10:27:25.817Z,69.80
2019-02-16T10:30:10.926Z,68.50
2019-02-16T10:32:56.092Z,69.10
2019-02-16T10:35:28.549Z,68.50
2019-02-16T10:38:13.769Z,68.00
2019-02-16T10:41:01.465Z,67.60
2019-02-16T10:43:40.571Z,66.70
2019-02-16T10:46:10.618Z,65.30
2019-02-16T10:48:58.549Z,64.60
2019-02-16T10:51:28.640Z,64.70
2019-02-16T10:53:58.678Z,63.80
2019-02-16T10:56:31.393Z,62.00
2019-02-16T10:59:18.683Z,60.90
2019-02-16T11:01:48.889Z,60.00
2019-02-16T11:04:18.959Z,58.30
2019-02-16T11:06:49.024Z,58.10
2019-02-16T11:09:35.160Z,57.70
2019-02-16T11:12:20.275Z,57.40
2019-02-16T11:14:50.305Z,56.70
2019-02-16T11:17:26.096Z,56.90
2019-02-16T11:20:07.965Z,56.00
2019-02-16T11:22:43.865Z,55.20
2019-02-16T11:25:17.094Z,55.00
2019-02-16T11:28:02.338Z,55.10
2019-02-16T11:30:35.274Z,54.80
2019-02-16T11:33:05.344Z,54.70
2019-02-16T11:35:51.668Z,54.40
2019-02-16T11:38:21.782Z,53.60
2019-02-16T11:40:51.815Z,52.80
2019-02-16T11:43:27.782Z,52.30
2019-02-16T11:46:00.548Z,52.40
2019-02-16T11:48:42.633Z,51.80
2019-02-16T11:51:24.262Z,51.10
2019-02-16T11:54:00.291Z,50.30
2019-02-16T11:56:46.351Z,50.00
2019-02-16T11:59:28.520Z,49.40
2019-02-16T12:01:58.574Z,49.30
2019-02-16T12:04:37.740Z,48.60
2019-02-16T12:07:16.582Z,48.00
2019-02-16T12:10:01.404Z,47.20
2019-02-16T12:12:47.685Z,45.40
2019-02-16T12:15:17.725Z,44.80
2019-02-16T12:17:59.886Z,44.50
2019-02-16T12:20:46.118Z,43.70
2019-02-16T12:23:19.086Z,43.60
2019-02-16T12:25:57.896Z,43.20
2019-02-16T12:28:37.009Z,42.70
2019-02-16T12:31:10.090Z,42.30
2019-02-16T12:33:52.236Z,40.90
2019-02-16T12:36:25.042Z,40.30
2019-02-16T12:39:04.560Z,40.10
2019-02-16T12:41:30.281Z,39.50
2019-02-16T12:44:03.257Z,39.20
2019-02-16T12:46:35.957Z,38.10
2019-02-16T12:49:09.014Z,37.40
2019-02-16T12:51:39.058Z,36.80
2019-02-16T12:54:17.830Z,36.80
2019-02-16T12:56:47.866Z,36.20
2019-02-16T12:59:17.924Z,35.60
2019-02-16T13:01:50.877Z,35.70
2019-02-16T13:04:32.791Z,35.60
2019-02-16T13:07:02.879Z,35.40
2019-02-16T13:09:40.311Z,35.50
2019-02-16T13:12:16.740Z,34.90
2019-02-16T13:14:57.900Z,34.90
2019-02-16T13:17:33.345Z,35.40
2019-02-16T13:20:03.396Z,34.60
2019-02-16T13:22:36.417Z,34.60
2019-02-16T13:25:13.261Z,35.20
2019-02-16T13:27:43.329Z,36.00
2019-02-16T13:30:19.175Z,36.10
2019-02-16T13:33:08.565Z,36.10
2019-02-16T13:35:48.269Z,36.00
2019-02-16T13:38:21.168Z,36.00
2019-02-16T13:40:57.267Z,36.40
2019-02-16T13:43:43.677Z,36.90
2019-02-16T13:46:16.652Z,37.10
2019-02-16T13:48:46.693Z,37.40
2019-02-16T13:51:19.473Z,37.80
2019-02-16T13:53:52.183Z,36.90
2019-02-16T13:56:28.214Z,36.00
2019-02-16T13:59:01.197Z,35.20
2019-02-16T14:01:34.232Z,36.60
2019-02-16T14:04:11.966Z,37.40
2019-02-16T14:06:44.895Z,37.40
2019-02-16T14:09:14.942Z,37.00
2019-02-16T14:12:01.007Z,36.90
2019-02-16T14:14:40.102Z,36.60
2019-02-16T14:17:18.951Z,37.80
2019-02-16T14:19:47.342Z,38.40
2019-02-16T14:22:15.758Z,38.90
2019-02-16T14:24:51.510Z,39.50
2019-02-16T14:27:19.981Z,39.90
2019-02-16T14:29:48.427Z,39.70
2019-02-16T14:32:16.847Z,38.60
2019-02-16T14:34:45.244Z,37.10
2019-02-16T14:37:15.520Z,34.80
2019-02-16T14:39:44.226Z,34.20
2019-02-16T14:42:12.639Z,34.00
2019-02-16T14:44:41.045Z,33.90
2019-02-16T14:47:09.476Z,33.00
2019-02-16T14:49:37.881Z,32.90
2019-02-16T14:52:06.299Z,33.30
2019-02-16T14:54:34.735Z,33.70
2019-02-16T14:57:03.168Z,33.90
2019-02-16T14:59:31.821Z,33.80
2019-02-16T15:02:00.586Z,34.40
2019-02-16T15:04:29.409Z,34.00
2019-02-16T15:06:58.122Z,33.90
2019-02-16T15:09:26.778Z,33.50
2019-02-16T15:11:55.539Z,33.60
2019-02-16T15:14:24.263Z,34.10
2019-02-16T15:16:53.082Z,35.20
2019-02-16T15:19:21.877Z,35.80
2019-02-16T15:21:50.567Z,36.90
2019-02-16T15:24:20.457Z,37.40
2019-02-16T15:26:49.267Z,37.50
2019-02-16T15:29:18.431Z,37.90
2019-02-16T15:31:47.130Z,38.70
2019-02-16T15:34:15.887Z,39.90
2019-02-16T15:36:44.669Z,40.80
2019-02-16T15:39:14.641Z,41.20
2019-02-16T15:41:43.306Z,40.90
2019-02-16T15:44:11.967Z,40.00
2019-02-16T15:46:40.756Z,39.50
2019-02-16T15:49:09.882Z,39.60
2019-02-16T15:51:38.660Z,40.10
2019-02-16T15:54:08.439Z,40.80
2019-02-16T15:56:37.147Z,41.20
2019-02-16T15:59:05.917Z,41.60
2019-02-16T16:01:34.791Z,42.00
2019-02-16T16:04:03.674Z,42.70
2019-02-16T16:06:32.358Z,43.10
2019-02-16T16:09:11.457Z,43.60
2019-02-16T16:11:47.791Z,44.60
2019-02-16T16:14:27.070Z,45.80
2019-02-16T16:17:12.575Z,47.20
2019-02-16T16:19:45.431Z,48.30
2019-02-16T16:22:15.775Z,50.00
2019-02-16T16:24:52.198Z,51.60
2019-02-16T16:27:22.549Z,52.90
2019-02-16T16:30:08.129Z,53.50
2019-02-16T16:32:38.506Z,54.00
2019-02-16T16:35:09.414Z,55.10
2019-02-16T16:37:40.347Z,56.10
2019-02-16T16:40:22.687Z,57.20
2019-02-16T16:42:59.105Z,57.80
2019-02-16T16:45:35.179Z,58.60
2019-02-16T16:48:08.209Z,59.30
2019-02-16T16:50:50.026Z,60.30
2019-02-16T16:53:34.696Z,61.20
2019-02-16T16:56:07.399Z,62.40
2019-02-16T16:58:43.194Z,63.40
2019-02-16T17:01:13.246Z,64.20
2019-02-16T17:03:43.290Z,65.00
2019-02-16T17:06:28.124Z,65.90
2019-02-16T17:08:58.162Z,66.60
2019-02-16T17:11:28.197Z,67.80
2019-02-16T17:14:03.980Z,69.00
2019-02-16T17:16:50.081Z,70.00
2019-02-16T17:19:23.112Z,70.90
2019-02-16T17:21:53.157Z,71.90
2019-02-16T17:24:35.232Z,72.60
2019-02-16T17:27:19.818Z,73.50
2019-02-16T17:29:49.902Z,74.20
2019-02-16T17:32:29.817Z,74.80
2019-02-16T17:35:08.953Z,75.60
2019-02-16T17:37:38.997Z,76.10
2019-02-16T17:40:25.858Z,76.80
2019-02-16T17:42:55.933Z,77.10
2019-02-16T17:45:25.980Z,77.20
2019-02-16T17:47:59.221Z,77.80
2019-02-16T17:50:41.037Z,78.40
2019-02-16T17:53:27.342Z,79.30
2019-02-16T17:55:57.382Z,79.80
2019-02-16T17:58:39.306Z,80.00
2019-02-16T18:01:12.038Z,80.30
2019-02-16T18:03:58.169Z,80.80
2019-02-16T18:06:37.035Z,81.50
2019-02-16T18:09:10.849Z,81.90
2019-02-16T18:11:46.704Z,82.10
2019-02-16T18:14:28.294Z,82.70
2019-02-16T18:17:15.546Z,83.10
2019-02-16T18:19:45.589Z,83.80
2019-02-16T18:22:33.508Z,84.40
2019-02-16T18:25:03.533Z,84.90
2019-02-16T18:27:45.802Z,85.60
2019-02-16T18:30:15.840Z,86.10
2019-02-16T18:33:00.475Z,86.50
2019-02-16T18:35:45.653Z,87.10
2019-02-16T18:38:30.560Z,87.50
2019-02-16T18:41:03.566Z,87.50
2019-02-16T18:43:33.677Z,87.50
2019-02-16T18:46:19.997Z,87.80
2019-02-16T18:48:50.037Z,87.40
2019-02-16T18:51:31.869Z,87.30
2019-02-16T18:54:01.946Z,87.30
2019-02-16T18:56:34.761Z,87.40
2019-02-16T18:59:07.583Z,87.30
2019-02-16T19:01:40.525Z,87.60
2019-02-16T19:04:25.440Z,87.50
2019-02-16T19:06:57.940Z,87.40
2019-02-16T19:09:30.462Z,87.60
2019-02-16T19:12:09.505Z,87.70
2019-02-16T19:14:39.619Z,87.60
2019-02-16T19:17:09.652Z,87.60
2019-02-16T19:19:39.771Z,87.80
2019-02-16T19:22:12.761Z,88.10
2019-02-16T19:24:45.490Z,88.50
2019-02-16T19:27:31.643Z,88.40
2019-02-16T19:30:13.789Z,88.00
2019-02-16T19:32:52.631Z,88.40
2019-02-16T19:35:25.401Z,88.40
2019-02-16T19:37:55.622Z,88.70
2019-02-16T19:40:28.330Z,88.70
2019-02-16T19:42:58.400Z,89.10
2019-02-16T19:45:34.287Z,89.20
2019-02-16T19:48:04.358Z,89.50
2019-02-16T19:50:46.032Z,89.30
2019-02-16T19:53:16.117Z,89.20
2019-02-16T19:55:46.152Z,89.30
2019-02-16T19:58:16.184Z,89.70
2019-02-16T20:00:49.218Z,89.80
2019-02-16T20:03:31.340Z,89.90
2019-02-16T20:06:03.882Z,90.00
2019-02-16T20:08:42.748Z,90.20
2019-02-16T20:11:18.610Z,90.30
2019-02-16T20:13:57.232Z,90.40
2019-02-16T20:16:45.445Z,90.70
2019-02-16T20:19:15.494Z,90.80
2019-02-16T20:22:02.145Z,90.70
2019-02-16T20:24:50.503Z,90.80
2019-02-16T20:27:37.583Z,91.00
2019-02-16T20:30:15.382Z,90.90
2019-02-16T20:32:51.645Z,91.30
2019-02-16T20:35:27.128Z,91.10
2019-02-16T20:37:59.776Z,91.30
2019-02-16T20:40:48.003Z,91.50
2019-02-16T20:43:18.068Z,91.60
2019-02-16T20:46:03.949Z,91.80
2019-02-16T20:48:49.094Z,91.70
2019-02-16T20:51:19.157Z,91.80
2019-02-16T20:53:52.117Z,91.80
2019-02-16T20:56:27.893Z,91.80
2019-02-16T20:59:14.018Z,91.90
2019-02-16T21:02:01.956Z,92.10
2019-02-16T21:04:38.007Z,92.10
2019-02-16T21:07:24.081Z,92.20
2019-02-16T21:10:06.140Z,92.20
2019-02-16T21:12:52.497Z,92.30
2019-02-16T21:15:38.595Z,92.20
2019-02-16T21:18:17.737Z,92.30
2019-02-16T21:21:04.171Z,92.20
2019-02-16T21:23:52.326Z,92.10
2019-02-16T21:26:36.545Z,92.30
2019-02-16T21:28:59.553Z,92.40
2019-02-16T21:31:38.320Z,92.40
2019-02-16T21:34:11.340Z,92.40
2019-02-16T21:36:44.462Z,92.50
2019-02-16T21:39:17.257Z,92.60
2019-02-16T21:41:49.812Z,92.50
2019-02-16T21:44:25.857Z,92.40
2019-02-16T21:46:57.016Z,92.60
2019-02-16T21:49:43.241Z,92.80
2019-02-16T21:52:13.285Z,92.70
2019-02-16T21:54:43.331Z,92.80
2019-02-16T21:57:29.523Z,92.90
2019-02-16T21:59:59.556Z,92.80
2019-02-16T22:02:35.339Z,92.80
2019-02-16T22:05:05.437Z,92.70
2019-02-16T22:07:47.728Z,92.50
2019-02-16T22:10:23.749Z,92.60
2019-02-16T22:12:59.600Z,92.50
2019-02-16T22:15:28.005Z,92.30
2019-02-16T22:17:56.774Z,92.40
2019-02-16T22:20:25.210Z,92.40
2019-02-16T22:22:53.617Z,92.30
2019-02-16T22:25:22.031Z,92.40
2019-02-16T22:27:50.427Z,92.40
2019-02-16T22:30:18.822Z,92.40
2019-02-16T22:32:47.257Z,92.30
2019-02-16T22:35:15.669Z,92.40
2019-02-16T22:37:44.053Z,92.50
2019-02-16T22:40:12.494Z,92.70
2019-02-16T22:42:40.899Z,92.80
2019-02-16T22:45:11.229Z,93.20
2019-02-16T22:47:39.829Z,93.50
2019-02-16T22:50:10.057Z,93.70
2019-02-16T22:52:38.472Z,93.60
2019-02-16T22:55:09.529Z,93.40
2019-02-16T22:57:37.931Z,93.50
2019-02-16T23:00:19.769Z,93.50
2019-02-16T23:02:48.463Z,93.80
2019-02-16T23:05:16.857Z,93.80
2019-02-16T23:07:45.285Z,94.00
2019-02-16T23:10:13.762Z,94.10
2019-02-16T23:12:42.176Z,94.10
2019-02-16T23:15:11.930Z,94.10
2019-02-16T23:17:40.361Z,94.10
2019-02-16T23:20:12.025Z,94.20
2019-02-16T23:22:40.418Z,94.20
2019-02-16T23:25:09.169Z,94.20
2019-02-16T23:27:37.582Z,94.40
2019-02-16T23:30:10.897Z,94.50
2019-02-16T23:32:39.399Z,94.60
2019-02-16T23:35:08.625Z,94.60
2019-02-16T23:37:37.033Z,94.60
2019-02-16T23:40:07.398Z,94.70
2019-02-16T23:42:35.792Z,94.80
2019-02-16T23:45:06.339Z,94.70
2019-02-16T23:47:34.764Z,94.90
2019-02-16T23:50:03.230Z,94.90
2019-02-16T23:52:31.800Z,94.90
2019-02-16T23:55:00.301Z,94.90
2019-02-16T23:57:28.789Z,95.00
2019-02-16T23:59:57.197Z,95.10
